TimeMST,TemperatureF,Dew PointF,Humidity,Sea Level PressureIn,VisibilityMPH,Wind Direction,Wind SpeedMPH,Gust SpeedMPH,PrecipitationIn,Events,Conditions,WindDirDegrees,DateUTC
12:53 AM,19.0,12.0,74,30.21,8.0,NW,8.1,-,0.00,Snow,Light Snow,320,2013-02-11 07:53:00
1:53 AM,19.0,12.0,74,30.21,10.0,NW,10.4,-,0.00,,Overcast,310,2013-02-11 08:53:00
2:53 AM,18.0,12.0,78,30.19,10.0,WNW,8.1,-,N/A,,Mostly Cloudy,300,2013-02-11 09:53:00
3:00 AM,17.6,12.2,79,30.08,10.0,WNW,6.9,-,N/A,,Scattered Clouds,300,2013-02-11 10:00:00
3:53 AM,15.1,10.9,84,30.18,10.0,WNW,5.8,-,N/A,,Clear,290,2013-02-11 10:53:00
4:53 AM,16.0,10.9,81,30.18,10.0,Calm,Calm,-,N/A,,Clear,0,2013-02-11 11:53:00
5:53 AM,14.0,10.0,84,30.17,10.0,Calm,Calm,-,N/A,,Clear,0,2013-02-11 12:53:00
6:35 AM,15.8,12.2,86,30.05,10.0,South,4.6,-,N/A,,Mostly Cloudy,180,2013-02-11 13:35:00
6:50 AM,14.0,10.4,86,30.04,10.0,SSE,3.5,-,N/A,,Scattered Clouds,160,2013-02-11 13:50:00
6:53 AM,14.0,10.0,84,30.17,10.0,South,3.5,-,N/A,,Scattered Clouds,170,2013-02-11 13:53:00
7:53 AM,14.0,10.0,84,30.15,10.0,SSE,4.6,-,N/A,,Clear,160,2013-02-11 14:53:00
8:53 AM,18.0,12.9,81,30.13,10.0,SSE,4.6,-,N/A,,Clear,150,2013-02-11 15:53:00
9:53 AM,23.0,16.0,74,30.11,10.0,South,4.6,-,N/A,,Clear,170,2013-02-11 16:53:00
10:53 AM,28.9,16.0,58,30.09,10.0,WSW,9.2,-,N/A,,Clear,250,2013-02-11 17:53:00
11:53 AM,30.9,16.0,54,30.07,10.0,WSW,11.5,-,N/A,,Clear,250,2013-02-11 18:53:00
12:53 PM,34.0,16.0,48,30.04,10.0,WSW,17.3,-,N/A,,Clear,240,2013-02-11 19:53:00
1:53 PM,36.0,16.0,44,30.01,10.0,West,15.0,-,N/A,,Clear,260,2013-02-11 20:53:00
2:53 PM,37.0,15.1,41,29.99,10.0,WSW,16.1,-,N/A,,Clear,250,2013-02-11 21:53:00
3:53 PM,36.0,15.1,43,29.99,10.0,West,13.8,-,N/A,,Scattered Clouds,260,2013-02-11 22:53:00
4:53 PM,35.1,18.0,50,29.98,10.0,WSW,10.4,-,N/A,,Clear,240,2013-02-11 23:53:00
5:53 PM,30.9,19.9,64,29.99,10.0,WSW,8.1,-,N/A,,Clear,240,2013-02-12 00:53:00
6:53 PM,30.9,19.9,64,29.99,10.0,West,10.4,-,N/A,,Partly Cloudy,260,2013-02-12 01:53:00
7:53 PM,28.9,19.9,69,30.00,10.0,SW,6.9,-,N/A,,Clear,230,2013-02-12 02:53:00
8:53 PM,28.9,19.9,69,29.99,10.0,WSW,5.8,-,N/A,,Partly Cloudy,240,2013-02-12 03:53:00
9:53 PM,28.0,19.0,69,29.99,10.0,West,10.4,-,N/A,,Scattered Clouds,260,2013-02-12 04:53:00
10:53 PM,28.0,18.0,66,29.98,10.0,West,8.1,-,N/A,,Partly Cloudy,270,2013-02-12 05:53:00
11:53 PM,28.0,19.0,69,29.99,10.0,WNW,5.8,-,N/A,,Mostly Cloudy,290,2013-02-12 06:53:00